Time;durP1;ratioP1;P1;durP2;ratioP2;P2;SDS_P1;SDS_P2;PMS_P1;PMS_P2;Temp;Humidity;BMP_temperature;BMP_pressure;BME280_temperature;BME280_humidity;BME280_pressure;Samples;Min_cycle;Max_cycle;Signal;HPM_P1;HPM_P2
2023/06/03 00:00:27;;;;;;;4.10;2.65;;;;;;;;;;5007752;28;20394;-67
2023/06/03 00:02:52;;;;;;;3.00;2.33;;;;;;;;;;5008029;28;20045;-67
2023/06/03 00:05:19;;;;;;;3.90;2.70;;;;;;;;;;5011950;28;20112;-67
2023/06/03 00:07:44;;;;;;;3.42;2.78;;;;;;;;;;5008307;28;20030;-67
2023/06/03 00:10:09;;;;;;;3.20;2.40;;;;;;;;;;5007919;28;20046;-68
2023/06/03 00:12:35;;;;;;;3.90;2.33;;;;;;;;;;5007545;28;20092;-70
2023/06/03 00:15:00;;;;;;;3.20;2.50;;;;;;;;;;5007497;28;20368;-63
2023/06/03 00:17:27;;;;;;;3.88;2.60;;;;;;;;;;5007963;28;20797;-69
2023/06/03 00:19:53;;;;;;;4.57;2.63;;;;;;;;;;5006983;28;20571;-68
2023/06/03 00:22:18;;;;;;;3.08;2.47;;;;;;;;;;5000734;28;20053;-62
2023/06/03 00:24:43;;;;;;;3.37;2.40;;;;;;;;;;4986762;28;20088;-63
2023/06/03 00:27:08;;;;;;;2.90;2.37;;;;;;;;;;5016644;28;20180;-68
2023/06/03 00:29:34;;;;;;;2.47;2.00;;;;;;;;;;5008149;28;20284;-68
2023/06/03 00:31:59;;;;;;;4.72;2.47;;;;;;;;;;5007690;28;20034;-66
2023/06/03 00:34:24;;;;;;;4.00;2.80;;;;;;;;;;5006898;28;20470;-65
2023/06/03 00:36:49;;;;;;;3.63;2.53;;;;;;;;;;5007967;28;20037;-63
2023/06/03 00:39:15;;;;;;;3.17;2.40;;;;;;;;;;5010824;28;20917;-65
2023/06/03 00:41:40;;;;;;;4.00;2.80;;;;;;;;;;5012157;28;20697;-65
2023/06/03 00:44:05;;;;;;;3.13;2.50;;;;;;;;;;5017996;28;20034;-61
2023/06/03 00:46:33;;;;;;;2.97;2.30;;;;;;;;;;5021580;28;20470;-67
2023/06/03 00:48:58;;;;;;;2.63;2.20;;;;;;;;;;5020887;28;20273;-65
2023/06/03 00:51:23;;;;;;;3.42;2.30;;;;;;;;;;5020017;28;20045;-67
2023/06/03 00:53:48;;;;;;;3.57;2.60;;;;;;;;;;5039213;28;20410;-64
2023/06/03 00:56:15;;;;;;;2.70;2.33;;;;;;;;;;5010158;28;20097;-68
2023/06/03 00:58:41;;;;;;;2.35;2.00;;;;;;;;;;5006684;28;20092;-69
2023/06/03 01:01:06;;;;;;;3.23;2.37;;;;;;;;;;5002872;28;20683;-67
2023/06/03 01:03:31;;;;;;;3.33;2.40;;;;;;;;;;5008447;28;20277;-65
2023/06/03 01:06:14;;;;;;;2.80;2.10;;;;;;;;;;5011005;28;20034;-67
2023/06/03 01:08:44;;;;;;;2.95;2.17;;;;;;;;;;5018992;28;20049;-68
2023/06/03 01:11:14;;;;;;;3.17;2.28;;;;;;;;;;5002294;28;20128;-70
2023/06/03 01:14:08;;;;;;;2.92;2.28;;;;;;;;;;5002096;28;20104;-67
2023/06/03 01:16:34;;;;;;;3.50;2.30;;;;;;;;;;5017472;28;20490;-69
2023/06/03 01:19:00;;;;;;;3.10;2.10;;;;;;;;;;5000649;28;20144;-70
2023/06/03 01:21:34;;;;;;;2.50;1.98;;;;;;;;;;5005447;28;20037;-69
2023/06/03 01:23:59;;;;;;;2.50;2.10;;;;;;;;;;5006112;28;20034;-66
2023/06/03 01:26:28;;;;;;;3.70;2.17;;;;;;;;;;4995783;28;20084;-66
2023/06/03 01:28:54;;;;;;;2.47;2.22;;;;;;;;;;5011708;28;20783;-69
2023/06/03 01:31:19;;;;;;;2.60;2.13;;;;;;;;;;5018766;28;20049;-63
2023/06/03 01:33:44;;;;;;;2.93;2.07;;;;;;;;;;4985535;28;20034;-67
2023/06/03 01:36:09;;;;;;;2.27;2.00;;;;;;;;;;5006396;28;20372;-68
2023/06/03 01:38:35;;;;;;;2.53;1.87;;;;;;;;;;4999172;28;20078;-66
2023/06/03 01:41:00;;;;;;;2.70;2.03;;;;;;;;;;5019256;28;20808;-65
2023/06/03 01:43:25;;;;;;;3.05;2.22;;;;;;;;;;5001519;28;20034;-68
2023/06/03 01:45:51;;;;;;;2.97;2.20;;;;;;;;;;5006414;28;20109;-69
2023/06/03 01:48:16;;;;;;;2.30;2.03;;;;;;;;;;5002082;28;20045;-68
2023/06/03 01:50:42;;;;;;;3.30;2.30;;;;;;;;;;4995270;28;20280;-67
2023/06/03 01:53:07;;;;;;;3.30;2.28;;;;;;;;;;5002755;28;20030;-68
2023/06/03 01:55:33;;;;;;;2.90;1.75;;;;;;;;;;4993852;28;20410;-66
2023/06/03 01:57:58;;;;;;;2.83;2.25;;;;;;;;;;5005750;28;20057;-66
2023/06/03 02:00:23;;;;;;;3.22;2.10;;;;;;;;;;5006261;28;20037;-68
2023/06/03 02:02:49;;;;;;;2.80;2.00;;;;;;;;;;5005832;28;20506;-69
2023/06/03 02:05:14;;;;;;;2.90;2.23;;;;;;;;;;5005167;28;20411;-69
2023/06/03 02:07:39;;;;;;;3.55;2.03;;;;;;;;;;5005119;28;20146;-63
2023/06/03 02:10:04;;;;;;;2.90;2.10;;;;;;;;;;5012244;28;20122;-69
2023/06/03 02:12:30;;;;;;;3.03;1.98;;;;;;;;;;5012428;28;20512;-66
2023/06/03 02:14:56;;;;;;;4.70;2.20;;;;;;;;;;5005368;28;20030;-64
2023/06/03 02:17:22;;;;;;;2.80;2.08;;;;;;;;;;5005277;28;20064;-68
2023/06/03 02:19:47;;;;;;;3.42;2.25;;;;;;;;;;5005526;28;20077;-68
2023/06/03 02:22:13;;;;;;;2.70;2.13;;;;;;;;;;5010576;28;20041;-69
2023/06/03 02:24:38;;;;;;;2.78;2.33;;;;;;;;;;5005494;28;20276;-69
2023/06/03 02:27:04;;;;;;;2.60;2.00;;;;;;;;;;5005582;28;20068;-70
2023/06/03 02:29:30;;;;;;;3.45;2.17;;;;;;;;;;5006688;28;20288;-67
2023/06/03 02:31:55;;;;;;;2.78;2.20;;;;;;;;;;5012830;28;20065;-63
2023/06/03 02:34:20;;;;;;;3.90;2.03;;;;;;;;;;5005063;28;20407;-66
2023/06/03 02:36:46;;;;;;;2.92;1.90;;;;;;;;;;5004700;28;20029;-69
2023/06/03 02:39:11;;;;;;;2.42;1.77;;;;;;;;;;5017895;28;20050;-69
2023/06/03 02:41:37;;;;;;;2.53;1.85;;;;;;;;;;5005417;28;20432;-70
2023/06/03 02:44:02;;;;;;;2.67;1.70;;;;;;;;;;5004771;28;20034;-68
2023/06/03 02:46:28;;;;;;;2.30;1.73;;;;;;;;;;5005279;28;20137;-65
2023/06/03 02:48:53;;;;;;;4.05;2.20;;;;;;;;;;5005397;28;20026;-68
2023/06/03 02:51:18;;;;;;;2.97;1.85;;;;;;;;;;5008215;28;20045;-67
2023/06/03 02:53:43;;;;;;;2.47;1.83;;;;;;;;;;5029800;28;20048;-65
2023/06/03 02:56:09;;;;;;;3.80;2.40;;;;;;;;;;5026769;28;20385;-67
2023/06/03 02:58:34;;;;;;;2.40;1.87;;;;;;;;;;5007243;28;20050;-70
2023/06/03 03:00:59;;;;;;;2.85;1.98;;;;;;;;;;5005189;28;20038;-67
2023/06/03 03:03:25;;;;;;;3.45;2.00;;;;;;;;;;5005354;28;20494;-70
2023/06/03 03:05:50;;;;;;;2.70;2.00;;;;;;;;;;5005113;28;20048;-67
2023/06/03 03:08:16;;;;;;;3.55;2.10;;;;;;;;;;5005072;28;20310;-68
2023/06/03 03:10:41;;;;;;;2.88;2.05;;;;;;;;;;5012985;28;20040;-68
2023/06/03 03:13:06;;;;;;;2.83;2.05;;;;;;;;;;5007014;28;20049;-69
2023/06/03 03:15:32;;;;;;;3.63;2.10;;;;;;;;;;5009816;28;20034;-66
2023/06/03 03:17:57;;;;;;;2.87;1.90;;;;;;;;;;5009413;28;20037;-65
2023/06/03 03:20:22;;;;;;;2.33;1.73;;;;;;;;;;5026250;28;20287;-66
2023/06/03 03:22:47;;;;;;;2.80;2.05;;;;;;;;;;5013040;28;20287;-68
2023/06/03 03:25:13;;;;;;;3.30;1.70;;;;;;;;;;5018249;28;20038;-69
2023/06/03 03:27:38;;;;;;;2.33;1.87;;;;;;;;;;5017862;28;20296;-67
2023/06/03 03:30:04;;;;;;;2.17;1.93;;;;;;;;;;5008286;28;20631;-69
2023/06/03 03:32:30;;;;;;;3.08;1.90;;;;;;;;;;5008289;28;20057;-65
2023/06/03 03:35:16;;;;;;;2.58;1.88;;;;;;;;;;5014851;28;20022;-66
2023/06/03 03:37:41;;;;;;;3.50;1.95;;;;;;;;;;5015287;28;20046;-64
2023/06/03 03:40:27;;;;;;;2.63;2.13;;;;;;;;;;5008038;28;20049;-69
2023/06/03 03:42:52;;;;;;;2.75;1.88;;;;;;;;;;5009542;28;20175;-69
2023/06/03 03:45:18;;;;;;;2.08;1.77;;;;;;;;;;5012542;28;20124;-65
2023/06/03 03:47:44;;;;;;;2.67;2.05;;;;;;;;;;4982924;28;20475;-64
2023/06/03 03:50:28;;;;;;;2.38;1.80;;;;;;;;;;5016246;28;20049;-69
2023/06/03 03:52:53;;;;;;;3.97;1.92;;;;;;;;;;5015152;28;20052;-66
2023/06/03 03:55:20;;;;;;;2.20;1.80;;;;;;;;;;5007768;28;20128;-65
2023/06/03 03:57:45;;;;;;;2.22;1.60;;;;;;;;;;4990442;28;20053;-67
2023/06/03 04:00:11;;;;;;;3.03;2.00;;;;;;;;;;5028985;28;20400;-66
2023/06/03 04:02:36;;;;;;;3.13;1.88;;;;;;;;;;5013472;28;20049;-68
2023/06/03 04:05:01;;;;;;;2.90;1.90;;;;;;;;;;4992443;28;20045;-67
2023/06/03 04:07:28;;;;;;;4.27;1.87;;;;;;;;;;5011885;28;20037;-65
2023/06/03 04:09:53;;;;;;;2.67;2.00;;;;;;;;;;5012721;28;20176;-67
2023/06/03 04:12:32;;;;;;;3.10;1.77;;;;;;;;;;5013608;28;20553;-64
2023/06/03 04:14:57;;;;;;;2.60;2.00;;;;;;;;;;4992403;28;20053;-64
2023/06/03 04:17:25;;;;;;;2.30;1.73;;;;;;;;;;5008898;28;20018;-64
2023/06/03 04:19:50;;;;;;;2.80;1.77;;;;;;;;;;5013279;28;20300;-68
2023/06/03 04:22:17;;;;;;;2.05;1.60;;;;;;;;;;5013605;28;20541;-66
2023/06/03 04:24:43;;;;;;;2.65;1.83;;;;;;;;;;4998877;28;20466;-67
2023/06/03 04:27:08;;;;;;;2.30;1.90;;;;;;;;;;5013088;28;20056;-68
2023/06/03 04:29:33;;;;;;;3.22;1.73;;;;;;;;;;5009489;28;20738;-66
2023/06/03 04:31:59;;;;;;;2.63;1.75;;;;;;;;;;5010228;28;20117;-67
2023/06/03 04:34:27;;;;;;;3.83;2.10;;;;;;;;;;5010943;28;20106;-70
2023/06/03 04:36:52;;;;;;;2.70;1.95;;;;;;;;;;5011785;28;20425;-67
2023/06/03 04:39:18;;;;;;;2.87;1.90;;;;;;;;;;5013267;28;20479;-64
2023/06/03 04:41:44;;;;;;;2.40;1.85;;;;;;;;;;4995172;28;20524;-67
2023/06/03 04:44:11;;;;;;;3.42;1.90;;;;;;;;;;5010304;28;20064;-69
2023/06/03 04:46:36;;;;;;;3.05;1.92;;;;;;;;;;5016191;28;20541;-71
2023/06/03 04:49:01;;;;;;;3.15;1.73;;;;;;;;;;5022689;28;20037;-69
2023/06/03 04:51:29;;;;;;;2.73;2.00;;;;;;;;;;5026720;28;20037;-63
2023/06/03 04:53:56;;;;;;;2.47;1.63;;;;;;;;;;5028515;28;20073;-66
2023/06/03 04:56:21;;;;;;;3.55;1.75;;;;;;;;;;5020140;28;20105;-68
2023/06/03 04:58:47;;;;;;;2.58;1.85;;;;;;;;;;5014966;28;20149;-67
2023/06/03 05:01:12;;;;;;;4.00;2.17;;;;;;;;;;5018776;28;20065;-64
2023/06/03 05:03:38;;;;;;;2.67;1.80;;;;;;;;;;5008462;28;20519;-64
2023/06/03 05:06:10;;;;;;;2.97;2.00;;;;;;;;;;5016248;28;20046;-65
2023/06/03 05:08:35;;;;;;;2.92;1.80;;;;;;;;;;5012378;28;20053;-63
2023/06/03 05:11:01;;;;;;;4.25;2.30;;;;;;;;;;5016607;28;20152;-63
2023/06/03 05:13:27;;;;;;;3.97;2.50;;;;;;;;;;5014818;28;20063;-68
2023/06/03 05:15:52;;;;;;;2.78;1.83;;;;;;;;;;4999463;28;20036;-67
2023/06/03 05:18:17;;;;;;;2.95;1.88;;;;;;;;;;5019249;28;20057;-65
2023/06/03 05:20:43;;;;;;;3.67;1.98;;;;;;;;;;5021021;28;20595;-64
2023/06/03 05:23:09;;;;;;;2.90;1.83;;;;;;;;;;5000235;28;20041;-70
2023/06/03 05:25:34;;;;;;;4.15;1.85;;;;;;;;;;5009568;28;20496;-67
2023/06/03 05:27:59;;;;;;;2.50;1.88;;;;;;;;;;5008988;28;20251;-67
2023/06/03 05:30:25;;;;;;;4.73;1.90;;;;;;;;;;5010715;28;20038;-64
2023/06/03 05:32:50;;;;;;;3.33;1.97;;;;;;;;;;5010401;28;20375;-63
2023/06/03 05:35:15;;;;;;;2.83;2.10;;;;;;;;;;5012821;28;20300;-62
2023/06/03 05:37:40;;;;;;;3.35;2.20;;;;;;;;;;5009769;28;20120;-63
2023/06/03 05:40:06;;;;;;;2.70;1.90;;;;;;;;;;4999441;28;20518;-62
2023/06/03 05:42:32;;;;;;;3.20;2.40;;;;;;;;;;4999091;28;20304;-67
2023/06/03 05:44:57;;;;;;;4.18;2.42;;;;;;;;;;5007791;28;20045;-63
2023/06/03 05:47:22;;;;;;;2.67;1.92;;;;;;;;;;5008498;28;20058;-64
2023/06/03 05:49:48;;;;;;;4.03;2.10;;;;;;;;;;5012123;28;20040;-64
2023/06/03 05:52:13;;;;;;;2.77;2.07;;;;;;;;;;5011377;28;20147;-64
2023/06/03 05:54:38;;;;;;;3.50;2.27;;;;;;;;;;4997514;28;21074;-62
2023/06/03 05:57:04;;;;;;;3.03;2.10;;;;;;;;;;5010813;28;20302;-65
2023/06/03 05:59:29;;;;;;;2.97;1.95;;;;;;;;;;5010375;28;20041;-62
2023/06/03 06:01:54;;;;;;;3.47;2.58;;;;;;;;;;5010364;28;20496;-67
2023/06/03 06:04:20;;;;;;;4.25;2.10;;;;;;;;;;5007382;28;20029;-64
2023/06/03 06:06:45;;;;;;;2.83;1.95;;;;;;;;;;5010467;28;20038;-64
2023/06/03 06:09:10;;;;;;;5.05;2.90;;;;;;;;;;5005651;28;20184;-66
2023/06/03 06:11:35;;;;;;;6.30;3.07;;;;;;;;;;5020775;28;20382;-67
2023/06/03 06:14:01;;;;;;;5.32;3.20;;;;;;;;;;5024175;28;20025;-67
2023/06/03 06:16:26;;;;;;;4.50;3.03;;;;;;;;;;5022626;28;20108;-66
2023/06/03 06:18:51;;;;;;;6.53;2.77;;;;;;;;;;5024655;28;20045;-66
2023/06/03 06:21:16;;;;;;;4.13;3.13;;;;;;;;;;5021936;28;20038;-65
2023/06/03 06:23:42;;;;;;;5.55;3.15;;;;;;;;;;5003662;28;20798;-67
2023/06/03 06:26:07;;;;;;;6.82;3.15;;;;;;;;;;4997388;28;20116;-67
2023/06/03 06:28:32;;;;;;;5.05;3.10;;;;;;;;;;5004477;28;20038;-63
2023/06/03 06:31:00;;;;;;;5.20;3.07;;;;;;;;;;5003749;28;20066;-64
2023/06/03 06:33:26;;;;;;;5.50;3.10;;;;;;;;;;5004688;28;20288;-66
2023/06/03 06:35:51;;;;;;;5.07;3.20;;;;;;;;;;4987901;28;20111;-65
2023/06/03 06:38:16;;;;;;;7.63;3.60;;;;;;;;;;5018713;28;20129;-65
2023/06/03 06:40:43;;;;;;;6.50;3.00;;;;;;;;;;5005158;28;20053;-63
2023/06/03 06:43:09;;;;;;;5.07;2.80;;;;;;;;;;4990810;28;20038;-66
2023/06/03 06:45:34;;;;;;;5.07;3.00;;;;;;;;;;5006433;28;20404;-67
2023/06/03 06:48:04;;;;;;;4.47;3.15;;;;;;;;;;5014173;28;20117;-66
2023/06/03 06:50:45;;;;;;;7.40;2.92;;;;;;;;;;5009314;28;20037;-64
2023/06/03 06:53:10;;;;;;;6.90;3.00;;;;;;;;;;5021492;28;20107;-67
2023/06/03 06:55:36;;;;;;;4.73;3.07;;;;;;;;;;5028442;28;20034;-69
2023/06/03 06:58:01;;;;;;;4.63;3.10;;;;;;;;;;5018906;28;20300;-66
2023/06/03 07:00:28;;;;;;;6.33;3.50;;;;;;;;;;5010054;28;20291;-67
2023/06/03 07:02:53;;;;;;;6.53;3.38;;;;;;;;;;5027088;28;20033;-65
2023/06/03 07:05:18;;;;;;;4.90;3.13;;;;;;;;;;5028839;28;20029;-68
2023/06/03 07:07:43;;;;;;;5.03;3.00;;;;;;;;;;5026105;28;20053;-62
2023/06/03 07:10:10;;;;;;;4.70;3.10;;;;;;;;;;5016902;28;20280;-65
2023/06/03 07:12:36;;;;;;;5.78;3.33;;;;;;;;;;5017578;28;20041;-65
2023/06/03 07:15:01;;;;;;;5.95;3.20;;;;;;;;;;5021504;28;20042;-67
2023/06/03 07:17:26;;;;;;;5.57;3.60;;;;;;;;;;5017443;28;20029;-67
2023/06/03 07:19:51;;;;;;;4.60;3.50;;;;;;;;;;5019085;28;20573;-64
2023/06/03 07:22:17;;;;;;;4.73;3.23;;;;;;;;;;5019243;28;20280;-66
2023/06/03 07:24:42;;;;;;;6.60;3.00;;;;;;;;;;5026102;28;20383;-67
2023/06/03 07:27:07;;;;;;;5.47;3.43;;;;;;;;;;4998929;28;20802;-65
2023/06/03 07:29:38;;;;;;;3.53;2.75;;;;;;;;;;5013643;28;20030;-68
2023/06/03 07:32:07;;;;;;;5.75;3.58;;;;;;;;;;5017552;28;20034;-61
2023/06/03 07:34:32;;;;;;;5.65;3.28;;;;;;;;;;5024941;28;20041;-65
2023/06/03 07:36:59;;;;;;;5.20;2.93;;;;;;;;;;5012246;28;20041;-62
2023/06/03 07:39:24;;;;;;;5.97;3.40;;;;;;;;;;5029994;28;20296;-66
2023/06/03 07:41:52;;;;;;;5.40;3.10;;;;;;;;;;5009485;28;20487;-66
2023/06/03 07:44:37;;;;;;;4.97;3.20;;;;;;;;;;5017860;28;20281;-64
2023/06/03 07:47:03;;;;;;;7.68;3.40;;;;;;;;;;5005838;28;20517;-63
2023/06/03 07:49:28;;;;;;;5.57;3.10;;;;;;;;;;5011199;28;20131;-63
2023/06/03 07:51:54;;;;;;;5.03;2.73;;;;;;;;;;5029027;28;20129;-63
2023/06/03 07:54:19;;;;;;;4.93;2.85;;;;;;;;;;5012126;28;20268;-70
2023/06/03 07:56:45;;;;;;;4.00;2.75;;;;;;;;;;5031980;28;20040;-67
2023/06/03 07:59:14;;;;;;;4.82;3.17;;;;;;;;;;5031433;28;20092;-67
2023/06/03 08:01:39;;;;;;;3.55;3.08;;;;;;;;;;5029027;28;20026;-70
2023/06/03 08:04:19;;;;;;;4.82;2.80;;;;;;;;;;5030748;28;20038;-71
2023/06/03 08:06:46;;;;;;;5.68;2.88;;;;;;;;;;5011236;28;20470;-68
2023/06/03 08:09:17;;;;;;;5.47;2.80;;;;;;;;;;5029194;28;20034;-71
2023/06/03 08:11:42;;;;;;;3.90;2.70;;;;;;;;;;5027238;28;20167;-69
2023/06/03 08:14:07;;;;;;;4.87;2.53;;;;;;;;;;5027361;28;20132;-69
2023/06/03 08:16:32;;;;;;;4.77;2.87;;;;;;;;;;5010964;28;20099;-66
2023/06/03 08:18:58;;;;;;;5.33;3.03;;;;;;;;;;5008354;28;20111;-67
2023/06/03 08:21:26;;;;;;;5.47;2.80;;;;;;;;;;5008750;28;20252;-66
2023/06/03 08:23:51;;;;;;;4.60;2.65;;;;;;;;;;5027101;28;20013;-69
2023/06/03 08:26:16;;;;;;;4.97;2.57;;;;;;;;;;4991644;28;20032;-62
2023/06/03 08:28:43;;;;;;;4.73;2.63;;;;;;;;;;5025973;28;20244;-65
2023/06/03 08:31:08;;;;;;;4.07;2.42;;;;;;;;;;5026614;28;20021;-60
2023/06/03 08:33:34;;;;;;;4.07;2.50;;;;;;;;;;5025706;28;20104;-65
2023/06/03 08:35:59;;;;;;;4.78;2.55;;;;;;;;;;5026457;28;20267;-70
2023/06/03 08:38:25;;;;;;;4.72;2.70;;;;;;;;;;5026106;28;20041;-66
2023/06/03 08:40:50;;;;;;;5.55;2.33;;;;;;;;;;5026258;28;20029;-60
2023/06/03 08:43:16;;;;;;;4.32;2.35;;;;;;;;;;5008011;28;20017;-68
2023/06/03 08:45:44;;;;;;;3.40;2.10;;;;;;;;;;5025796;28;20092;-69
2023/06/03 08:48:28;;;;;;;3.72;2.53;;;;;;;;;;5026173;28;20471;-69
2023/06/03 08:50:55;;;;;;;5.03;2.50;;;;;;;;;;5023711;28;20048;-66
2023/06/03 08:53:20;;;;;;;3.45;2.13;;;;;;;;;;5024868;28;20098;-64
2023/06/03 08:55:45;;;;;;;4.18;2.40;;;;;;;;;;5027628;28;20076;-70
2023/06/03 08:58:19;;;;;;;4.30;2.63;;;;;;;;;;5026889;28;20052;-68
2023/06/03 09:00:44;;;;;;;3.88;2.17;;;;;;;;;;5009207;28;20276;-63
2023/06/03 09:03:11;;;;;;;5.28;2.20;;;;;;;;;;5020148;28;20116;-65
2023/06/03 09:05:36;;;;;;;3.47;2.00;;;;;;;;;;4989424;28;20049;-67
2023/06/03 09:08:01;;;;;;;2.83;1.83;;;;;;;;;;5020642;28;20815;-64
2023/06/03 09:10:27;;;;;;;3.20;2.23;;;;;;;;;;5008186;28;20087;-65
2023/06/03 09:12:54;;;;;;;2.47;2.00;;;;;;;;;;5025688;28;20800;-64
2023/06/03 09:15:20;;;;;;;3.63;2.20;;;;;;;;;;4985939;28;20718;-64
2023/06/03 09:17:45;;;;;;;4.75;2.17;;;;;;;;;;4970181;28;20034;-64
2023/06/03 09:20:11;;;;;;;3.35;2.13;;;;;;;;;;4997367;28;20086;-65
2023/06/03 09:22:36;;;;;;;3.05;2.10;;;;;;;;;;5005946;28;20029;-64
2023/06/03 09:25:02;;;;;;;3.38;2.20;;;;;;;;;;5004590;28;20038;-64
2023/06/03 09:27:27;;;;;;;4.22;2.13;;;;;;;;;;4976188;28;20061;-67
2023/06/03 09:29:53;;;;;;;3.47;2.00;;;;;;;;;;4980396;28;20069;-65
2023/06/03 09:32:19;;;;;;;2.63;1.90;;;;;;;;;;4988714;28;20117;-64
2023/06/03 09:34:44;;;;;;;4.05;2.15;;;;;;;;;;4985933;28;20525;-64
2023/06/03 09:37:10;;;;;;;2.83;2.20;;;;;;;;;;4991010;28;20070;-63
2023/06/03 09:39:35;;;;;;;2.80;2.03;;;;;;;;;;4992963;28;20324;-63
2023/06/03 09:42:01;;;;;;;2.78;2.00;;;;;;;;;;4971759;28;20100;-64
2023/06/03 09:44:41;;;;;;;6.80;2.05;;;;;;;;;;4979750;28;20041;-68
2023/06/03 09:47:07;;;;;;;3.55;2.15;;;;;;;;;;4992164;28;20050;-66
2023/06/03 09:49:32;;;;;;;2.65;1.80;;;;;;;;;;4993130;28;20163;-64
2023/06/03 09:51:57;;;;;;;4.75;2.10;;;;;;;;;;4974255;28;20054;-64
2023/06/03 09:54:23;;;;;;;4.47;2.23;;;;;;;;;;4988004;28;20031;-66
2023/06/03 09:56:48;;;;;;;3.90;1.92;;;;;;;;;;4989221;28;20842;-61
2023/06/03 09:59:17;;;;;;;3.70;1.93;;;;;;;;;;4991423;28;20061;-64
2023/06/03 10:01:45;;;;;;;2.90;2.07;;;;;;;;;;4973244;28;20034;-62
2023/06/03 10:04:10;;;;;;;3.33;1.95;;;;;;;;;;4991053;28;20296;-61
2023/06/03 10:06:37;;;;;;;4.88;2.10;;;;;;;;;;4990788;28;20187;-64
2023/06/03 10:09:19;;;;;;;3.70;1.80;;;;;;;;;;4991829;28;20688;-63
2023/06/03 10:11:48;;;;;;;5.32;2.13;;;;;;;;;;4978948;28;20102;-64
2023/06/03 10:14:14;;;;;;;2.20;1.80;;;;;;;;;;4988866;28;20046;-64
2023/06/03 10:16:40;;;;;;;5.00;2.45;;;;;;;;;;4991409;28;20312;-60
2023/06/03 10:19:05;;;;;;;3.63;2.27;;;;;;;;;;4991192;28;20054;-61
2023/06/03 10:21:30;;;;;;;2.90;1.80;;;;;;;;;;4977604;28;20035;-62
2023/06/03 10:23:56;;;;;;;3.80;2.20;;;;;;;;;;4991623;28;20175;-64
2023/06/03 10:26:22;;;;;;;3.45;2.17;;;;;;;;;;4990362;28;20035;-61
2023/06/03 10:28:48;;;;;;;2.50;1.70;;;;;;;;;;4978760;28;20522;-62
2023/06/03 10:31:13;;;;;;;3.03;2.10;;;;;;;;;;4978336;28;20066;-66
2023/06/03 10:33:38;;;;;;;3.37;2.00;;;;;;;;;;4972451;28;20534;-63
2023/06/03 10:36:04;;;;;;;3.77;1.97;;;;;;;;;;4990383;28;20308;-62
2023/06/03 10:38:30;;;;;;;3.25;1.98;;;;;;;;;;4988979;28;20300;-61
2023/06/03 10:40:56;;;;;;;3.60;1.90;;;;;;;;;;4989283;28;20042;-61
2023/06/03 10:43:21;;;;;;;3.40;2.23;;;;;;;;;;4989585;28;20119;-69
2023/06/03 10:45:46;;;;;;;3.23;2.00;;;;;;;;;;4990621;28;20308;-65
2023/06/03 10:48:12;;;;;;;3.40;1.90;;;;;;;;;;4971228;28;20821;-67
2023/06/03 10:50:42;;;;;;;4.47;1.88;;;;;;;;;;4988895;28;21845;-67
2023/06/03 10:53:16;;;;;;;2.88;1.75;;;;;;;;;;4990946;28;20038;-68
2023/06/03 10:55:48;;;;;;;3.10;1.70;;;;;;;;;;4990514;28;20046;-65
2023/06/03 10:58:19;;;;;;;2.75;1.45;;;;;;;;;;4985299;28;20041;-71
2023/06/03 11:00:55;;;;;;;4.10;1.77;;;;;;;;;;4971911;28;20034;-67
2023/06/03 11:03:21;;;;;;;2.85;1.73;;;;;;;;;;5011122;28;20042;-66
2023/06/03 11:05:46;;;;;;;3.67;2.10;;;;;;;;;;5025139;28;20526;-69
2023/06/03 11:08:12;;;;;;;3.25;1.70;;;;;;;;;;4999557;28;20171;-66
2023/06/03 11:10:39;;;;;;;3.90;1.37;;;;;;;;;;5020593;28;20053;-66
2023/06/03 11:13:04;;;;;;;3.58;1.90;;;;;;;;;;5023861;28;20319;-70
2023/06/03 11:15:49;;;;;;;5.90;1.90;;;;;;;;;;5028038;28;20013;-67
2023/06/03 11:18:15;;;;;;;3.00;1.52;;;;;;;;;;5013082;28;20295;-67
2023/06/03 11:20:40;;;;;;;3.60;1.70;;;;;;;;;;5020043;28;20026;-68
2023/06/03 11:23:06;;;;;;;4.07;2.27;;;;;;;;;;5018344;28;20034;-69
2023/06/03 11:25:31;;;;;;;5.07;2.17;;;;;;;;;;5024449;28;20287;-64
2023/06/03 11:28:15;;;;;;;3.60;2.00;;;;;;;;;;5011154;28;20057;-67
2023/06/03 11:30:55;;;;;;;3.60;2.10;;;;;;;;;;5019285;28;20117;-64
2023/06/03 11:33:20;;;;;;;3.33;1.88;;;;;;;;;;5036361;28;20086;-64
2023/06/03 11:35:46;;;;;;;2.70;1.70;;;;;;;;;;5034113;28;20058;-65
2023/06/03 11:38:11;;;;;;;3.40;1.90;;;;;;;;;;5026915;28;20307;-70
2023/06/03 11:40:46;;;;;;;3.47;2.70;;;;;;;;;;5023635;28;20049;-68
2023/06/03 11:43:11;;;;;;;4.32;2.05;;;;;;;;;;5028756;28;20124;-70
2023/06/03 11:45:38;;;;;;;3.15;2.10;;;;;;;;;;5027130;28;20124;-69
2023/06/03 11:48:13;;;;;;;3.97;2.28;;;;;;;;;;5024192;28;20053;-63
2023/06/03 11:50:47;;;;;;;2.83;2.10;;;;;;;;;;5005146;28;20107;-64
2023/06/03 11:53:28;;;;;;;3.70;2.65;;;;;;;;;;5027790;28;20038;-70
2023/06/03 11:56:00;;;;;;;4.30;2.75;;;;;;;;;;5025335;28;20890;-69
2023/06/03 11:58:25;;;;;;;3.78;2.30;;;;;;;;;;5006069;28;20182;-70
2023/06/03 12:01:02;;;;;;;5.28;2.78;;;;;;;;;;5010711;28;20072;-68
2023/06/03 12:03:27;;;;;;;2.60;2.28;;;;;;;;;;5010961;28;20029;-70
2023/06/03 12:05:53;;;;;;;5.37;2.50;;;;;;;;;;5020868;28;20025;-69
2023/06/03 12:08:18;;;;;;;3.47;2.20;;;;;;;;;;5020760;28;20040;-67
2023/06/03 12:10:43;;;;;;;3.90;2.60;;;;;;;;;;5023355;28;20091;-64
2023/06/03 12:13:09;;;;;;;4.37;2.50;;;;;;;;;;5026424;28;20110;-69
2023/06/03 12:15:35;;;;;;;6.30;2.80;;;;;;;;;;5004771;28;20917;-69
2023/06/03 12:18:03;;;;;;;4.20;2.35;;;;;;;;;;5030798;28;20164;-68
2023/06/03 12:20:29;;;;;;;4.03;2.70;;;;;;;;;;5005480;28;20049;-62
2023/06/03 12:23:00;;;;;;;3.65;2.70;;;;;;;;;;5025974;28;20039;-69
2023/06/03 12:25:26;;;;;;;6.05;3.00;;;;;;;;;;5024788;28;20037;-62
2023/06/03 12:27:51;;;;;;;4.53;2.80;;;;;;;;;;5024532;28;20029;-66
2023/06/03 12:30:37;;;;;;;4.13;2.77;;;;;;;;;;5024483;28;20022;-69
2023/06/03 12:33:02;;;;;;;5.28;2.97;;;;;;;;;;5025432;28;20842;-67
2023/06/03 12:35:27;;;;;;;3.85;2.33;;;;;;;;;;5022158;28;20033;-67
2023/06/03 12:38:02;;;;;;;4.05;2.58;;;;;;;;;;5025987;28;20037;-69
2023/06/03 12:40:27;;;;;;;4.45;2.25;;;;;;;;;;5016040;28;20103;-70
2023/06/03 12:42:53;;;;;;;4.60;2.60;;;;;;;;;;4998537;28;20065;-62
2023/06/03 12:45:22;;;;;;;4.93;2.75;;;;;;;;;;5014820;28;20038;-66
2023/06/03 12:47:47;;;;;;;4.97;3.00;;;;;;;;;;5025434;28;20030;-69
2023/06/03 12:50:12;;;;;;;5.60;3.30;;;;;;;;;;5026179;28;20464;-65
2023/06/03 12:52:38;;;;;;;5.78;3.22;;;;;;;;;;5025949;28;20909;-68
2023/06/03 12:55:09;;;;;;;6.22;3.72;;;;;;;;;;5023659;28;20064;-66
2023/06/03 12:57:37;;;;;;;5.22;3.65;;;;;;;;;;5006006;28;20032;-69
2023/06/03 13:00:07;;;;;;;6.03;3.70;;;;;;;;;;5014373;28;20045;-58
2023/06/03 13:02:32;;;;;;;;;;;;;;;;;;5020071;28;20049;-59
2023/06/03 13:04:57;;;;;;;4.53;3.35;;;;;;;;;;5019985;28;20379;-59
2023/06/03 13:07:23;;;;;;;4.82;3.58;;;;;;;;;;5019527;28;20033;-60
2023/06/03 13:09:48;;;;;;;5.55;3.95;;;;;;;;;;5002874;28;20486;-62
2023/06/03 13:12:13;;;;;;;10.00;3.53;;;;;;;;;;5023456;28;20049;-59
2023/06/03 13:14:39;;;;;;;7.47;3.83;;;;;;;;;;5022090;28;20033;-58
2023/06/03 13:17:04;;;;;;;5.43;3.50;;;;;;;;;;5022486;28;20286;-60
2023/06/03 13:19:30;;;;;;;5.20;3.72;;;;;;;;;;5022668;28;20042;-62
2023/06/03 13:21:56;;;;;;;4.57;3.33;;;;;;;;;;5020046;28;20061;-60
2023/06/03 13:24:21;;;;;;;5.40;3.88;;;;;;;;;;5022706;28;20077;-60
2023/06/03 13:26:46;;;;;;;4.67;3.13;;;;;;;;;;5022940;28;20045;-60
2023/06/03 13:29:13;;;;;;;5.00;3.20;;;;;;;;;;5025977;28;20639;-60
2023/06/03 13:31:38;;;;;;;5.60;3.70;;;;;;;;;;5020453;28;21370;-60
2023/06/03 13:34:03;;;;;;;5.77;3.70;;;;;;;;;;5018597;28;20044;-60
2023/06/03 13:36:28;;;;;;;5.45;3.15;;;;;;;;;;5022379;28;20287;-61
2023/06/03 13:38:54;;;;;;;7.25;3.08;;;;;;;;;;5008327;28;20037;-63
2023/06/03 13:41:19;;;;;;;6.05;3.65;;;;;;;;;;5022474;28;20559;-61
2023/06/03 13:43:44;;;;;;;4.40;3.10;;;;;;;;;;5022212;28;20056;-60
2023/06/03 13:46:11;;;;;;;5.40;3.37;;;;;;;;;;5019998;28;20094;-63
2023/06/03 13:48:36;;;;;;;6.57;3.42;;;;;;;;;;5015120;28;20292;-63
2023/06/03 13:51:02;;;;;;;6.57;3.97;;;;;;;;;;5004448;28;20096;-61
2023/06/03 13:53:27;;;;;;;7.80;4.40;;;;;;;;;;5005469;28;20808;-62
2023/06/03 13:55:52;;;;;;;5.17;4.23;;;;;;;;;;5016155;28;20665;-61
2023/06/03 13:58:17;;;;;;;6.60;4.55;;;;;;;;;;5017502;28;20473;-61
2023/06/03 14:00:43;;;;;;;7.30;4.80;;;;;;;;;;5022774;28;20536;-62
2023/06/03 14:03:08;;;;;;;8.07;5.05;;;;;;;;;;5021816;28;20029;-60
2023/06/03 14:05:33;;;;;;;8.20;4.77;;;;;;;;;;5016290;28;20041;-61
2023/06/03 14:07:58;;;;;;;6.57;4.30;;;;;;;;;;5022274;28;20314;-63
2023/06/03 14:10:24;;;;;;;7.83;3.80;;;;;;;;;;5019447;28;20359;-64
2023/06/03 14:12:49;;;;;;;6.18;3.78;;;;;;;;;;5006992;28;20407;-63
2023/06/03 14:15:14;;;;;;;4.88;3.95;;;;;;;;;;5008691;28;20038;-68
2023/06/03 14:17:40;;;;;;;6.25;3.55;;;;;;;;;;5009554;28;20117;-64
2023/06/03 14:20:05;;;;;;;5.60;3.30;;;;;;;;;;5020265;28;20061;-62
2023/06/03 14:22:31;;;;;;;5.18;3.00;;;;;;;;;;5019906;28;20034;-62
2023/06/03 14:24:56;;;;;;;6.07;3.30;;;;;;;;;;5007658;28;20785;-64
2023/06/03 14:27:21;;;;;;;4.07;2.83;;;;;;;;;;4985891;28;20268;-66
2023/06/03 14:29:46;;;;;;;4.57;3.13;;;;;;;;;;5019897;28;20057;-66
2023/06/03 14:32:12;;;;;;;4.90;3.25;;;;;;;;;;5023327;28;20184;-69
2023/06/03 14:34:37;;;;;;;5.60;3.10;;;;;;;;;;5020390;28;20029;-69
2023/06/03 14:37:02;;;;;;;5.67;3.33;;;;;;;;;;5023113;28;20037;-69
2023/06/03 14:39:28;;;;;;;4.97;3.20;;;;;;;;;;5004978;28;20321;-61